createdAt,value
2018-09-08T00:00:54.784Z,100.00
2018-09-08T00:03:59.009Z,100.00
2018-09-08T00:07:08.461Z,100.00
2018-09-08T00:10:15.194Z,100.00
2018-09-08T00:13:19.505Z,100.00
2018-09-08T00:16:29.172Z,100.00
2018-09-08T00:19:38.736Z,100.00
2018-09-08T00:22:48.509Z,100.00
2018-09-08T00:25:58.404Z,100.00
2018-09-08T00:29:35.542Z,100.00
2018-09-08T00:32:40.453Z,100.00
2018-09-08T00:35:45.173Z,100.00
2018-09-08T00:38:49.618Z,100.00
2018-09-08T00:41:54.303Z,100.00
2018-09-08T00:44:58.980Z,100.00
2018-09-08T00:48:03.414Z,100.00
2018-09-08T00:51:07.709Z,100.00
2018-09-08T00:54:12.144Z,100.00
2018-09-08T00:57:16.745Z,100.00
2018-09-08T01:00:21.211Z,100.00
2018-09-08T01:03:25.574Z,100.00
2018-09-08T01:06:29.848Z,100.00
2018-09-08T01:09:34.177Z,100.00
2018-09-08T01:12:38.764Z,100.00
2018-09-08T01:15:43.205Z,100.00
2018-09-08T01:18:47.700Z,100.00
2018-09-08T01:21:52.084Z,100.00
2018-09-08T01:24:56.324Z,100.00
2018-09-08T01:28:00.522Z,100.00
2018-09-08T01:31:04.740Z,100.00
2018-09-08T01:34:08.941Z,100.00
2018-09-08T01:37:13.180Z,100.00
2018-09-08T01:40:17.403Z,100.00
2018-09-08T01:43:21.671Z,100.00
2018-09-08T01:46:25.877Z,100.00
2018-09-08T01:49:30.099Z,100.00
2018-09-08T01:52:34.308Z,100.00
2018-09-08T01:55:38.659Z,100.00
2018-09-08T01:58:42.865Z,100.00
2018-09-08T02:01:47.133Z,100.00
2018-09-08T02:04:51.401Z,100.00
2018-09-08T02:07:55.569Z,100.00
2018-09-08T02:10:59.773Z,100.00
2018-09-08T02:14:03.970Z,100.00
2018-09-08T02:17:08.196Z,100.00
2018-09-08T02:20:12.425Z,100.00
2018-09-08T02:23:16.625Z,100.00
2018-09-08T02:26:20.840Z,100.00
2018-09-08T02:29:25.048Z,100.00
2018-09-08T02:32:29.277Z,100.00
2018-09-08T02:35:33.500Z,100.00
2018-09-08T02:38:37.708Z,100.00
2018-09-08T02:41:41.931Z,100.00
2018-09-08T02:44:46.160Z,100.00
2018-09-08T02:47:50.405Z,100.00
2018-09-08T02:50:53.121Z,100.00
2018-09-08T02:53:55.869Z,100.00
2018-09-08T02:56:58.601Z,100.00
2018-09-08T03:00:01.372Z,100.00
2018-09-08T03:03:04.104Z,100.00
2018-09-08T03:06:06.853Z,100.00
2018-09-08T03:09:09.577Z,100.00
2018-09-08T03:12:12.325Z,100.00
2018-09-08T03:15:15.038Z,100.00
2018-09-08T03:18:17.777Z,100.00
2018-09-08T03:21:20.534Z,100.00
2018-09-08T03:24:23.305Z,100.00
2018-09-08T03:27:26.537Z,100.00
2018-09-08T03:30:29.269Z,100.00
2018-09-08T03:33:31.996Z,100.00
2018-09-08T03:36:34.716Z,100.00
2018-09-08T03:39:37.460Z,100.00
2018-09-08T03:42:40.209Z,100.00
2018-09-08T03:45:42.956Z,100.00
2018-09-08T03:48:45.891Z,100.00
2018-09-08T03:51:48.640Z,100.00
2018-09-08T03:54:51.362Z,100.00
2018-09-08T03:57:54.109Z,100.00
2018-09-08T04:00:57.061Z,100.00
2018-09-08T04:04:01.301Z,100.00
2018-09-08T04:07:05.760Z,100.00
2018-09-08T04:10:09.993Z,100.00
2018-09-08T04:13:14.208Z,100.00
2018-09-08T04:16:18.424Z,100.00
2018-09-08T04:19:22.608Z,100.00
2018-09-08T04:22:31.043Z,100.00
2018-09-08T04:25:35.297Z,100.00
2018-09-08T04:28:39.517Z,100.00
2018-09-08T04:31:43.722Z,100.00
2018-09-08T04:34:47.953Z,100.00
2018-09-08T04:37:52.160Z,100.00
2018-09-08T04:40:56.438Z,100.00
2018-09-08T04:44:00.605Z,100.00
2018-09-08T04:47:04.824Z,100.00
2018-09-08T04:50:09.185Z,100.00
2018-09-08T04:53:13.384Z,100.00
2018-09-08T04:56:17.590Z,100.00
2018-09-08T04:59:21.804Z,100.00
2018-09-08T05:02:26.037Z,100.00
2018-09-08T05:05:30.346Z,100.00
2018-09-08T05:08:34.573Z,100.00
2018-09-08T05:11:38.857Z,100.00
2018-09-08T05:14:43.059Z,100.00
2018-09-08T05:17:47.284Z,100.00
2018-09-08T05:20:51.494Z,100.00
2018-09-08T05:23:55.763Z,100.00
2018-09-08T05:26:59.980Z,100.00
2018-09-08T05:30:04.208Z,100.00
2018-09-08T05:33:08.422Z,100.00
2018-09-08T05:36:12.739Z,100.00
2018-09-08T05:39:16.986Z,100.00
2018-09-08T05:42:21.189Z,100.00
2018-09-08T05:45:25.410Z,100.00
2018-09-08T05:48:29.673Z,100.00
2018-09-08T05:51:33.888Z,100.00
2018-09-08T05:54:38.105Z,100.00
2018-09-08T05:57:42.292Z,100.00
2018-09-08T06:00:46.553Z,100.00
2018-09-08T06:03:50.807Z,100.00
2018-09-08T06:07:00.269Z,100.00
2018-09-08T06:10:04.508Z,100.00
2018-09-08T06:13:08.764Z,100.00
2018-09-08T06:16:12.979Z,100.00
2018-09-08T06:19:17.197Z,100.00
2018-09-08T06:22:21.458Z,100.00
2018-09-08T06:25:25.734Z,100.00
2018-09-08T06:28:29.955Z,100.00
2018-09-08T06:31:34.126Z,100.00
2018-09-08T06:34:38.342Z,100.00
2018-09-08T06:37:42.581Z,100.00
2018-09-08T06:40:46.813Z,100.00
2018-09-08T06:43:51.060Z,100.00
2018-09-08T06:46:55.334Z,100.00
2018-09-08T06:49:59.617Z,100.00
2018-09-08T06:53:03.893Z,100.00
2018-09-08T06:56:08.305Z,100.00
2018-09-08T06:59:12.571Z,100.00
2018-09-08T07:02:16.821Z,100.00
2018-09-08T07:05:21.093Z,100.00
2018-09-08T07:08:25.356Z,100.00
2018-09-08T07:11:29.939Z,100.00
2018-09-08T07:14:34.180Z,100.00
2018-09-08T07:17:38.417Z,100.00
2018-09-08T07:20:42.657Z,100.00
2018-09-08T07:23:46.972Z,100.00
2018-09-08T07:26:51.188Z,100.00
2018-09-08T07:29:55.434Z,100.00
2018-09-08T07:32:59.673Z,100.00
2018-09-08T07:36:03.984Z,100.00
2018-09-08T07:39:10.024Z,100.00
2018-09-08T07:42:14.297Z,100.00
2018-09-08T07:45:18.516Z,100.00
2018-09-08T07:48:22.889Z,100.00
2018-09-08T07:51:27.122Z,100.00
2018-09-08T07:54:31.377Z,100.00
2018-09-08T07:57:35.628Z,100.00
2018-09-08T08:00:39.849Z,100.00
2018-09-08T08:03:44.066Z,100.00
2018-09-08T08:06:48.354Z,100.00
2018-09-08T08:09:52.604Z,100.00
2018-09-08T08:12:56.847Z,100.00
2018-09-08T08:16:01.086Z,100.00
2018-09-08T08:19:05.444Z,100.00
2018-09-08T08:22:09.681Z,100.00
2018-09-08T08:25:14.930Z,100.00
2018-09-08T08:28:19.157Z,100.00
2018-09-08T08:31:23.382Z,100.00
2018-09-08T08:34:27.630Z,100.00
2018-09-08T08:37:31.900Z,100.00
2018-09-08T08:40:36.156Z,100.00
2018-09-08T08:43:40.459Z,100.00
2018-09-08T08:46:44.716Z,100.00
2018-09-08T08:51:02.316Z,100.00
2018-09-08T08:54:16.894Z,100.00
2018-09-08T08:57:21.138Z,100.00
2018-09-08T09:00:25.371Z,100.00
2018-09-08T09:03:29.637Z,100.00
2018-09-08T09:06:34.164Z,100.00
2018-09-08T09:09:38.408Z,100.00
2018-09-08T09:12:42.701Z,100.00
2018-09-08T09:15:46.945Z,100.00
2018-09-08T09:19:08.581Z,100.00
2018-09-08T09:22:30.185Z,100.00
2018-09-08T09:25:35.254Z,100.00
2018-09-08T09:28:39.530Z,100.00
2018-09-08T09:31:43.784Z,100.00
2018-09-08T09:34:48.037Z,100.00
2018-09-08T09:37:52.251Z,100.00
2018-09-08T09:40:56.521Z,100.00
2018-09-08T09:44:01.265Z,100.00
2018-09-08T09:47:05.744Z,100.00
2018-09-08T09:50:11.636Z,100.00
2018-09-08T09:53:15.964Z,100.00
2018-09-08T09:56:20.164Z,100.00
2018-09-08T09:59:24.424Z,100.00
2018-09-08T10:02:43.834Z,100.00
2018-09-08T10:05:48.081Z,100.00
2018-09-08T10:08:52.331Z,100.00
2018-09-08T10:11:56.625Z,100.00
2018-09-08T10:15:00.848Z,100.00
2018-09-08T10:18:05.099Z,99.92
2018-09-08T10:21:09.334Z,95.81
2018-09-08T10:24:14.057Z,94.39
2018-09-08T10:27:18.269Z,95.14
2018-09-08T10:30:22.561Z,93.28
2018-09-08T10:33:26.776Z,91.09
2018-09-08T10:36:31.030Z,91.52
2018-09-08T10:39:35.308Z,91.32
2018-09-08T10:42:39.576Z,89.10
2018-09-08T10:45:43.821Z,90.16
2018-09-08T10:48:48.140Z,89.12
2018-09-08T10:52:02.821Z,88.90
2018-09-08T10:55:07.108Z,86.64
2018-09-08T10:58:11.360Z,85.71
2018-09-08T11:01:15.581Z,84.78
2018-09-08T11:04:19.837Z,83.00
2018-09-08T11:07:24.076Z,81.78
2018-09-08T11:10:28.305Z,81.04
2018-09-08T11:13:32.576Z,81.46
2018-09-08T11:16:36.820Z,81.51
2018-09-08T11:19:41.077Z,79.17
2018-09-08T11:22:45.309Z,78.68
2018-09-08T11:25:49.534Z,78.90
2018-09-08T11:28:53.797Z,79.32
2018-09-08T11:31:58.053Z,78.79
2018-09-08T11:35:02.294Z,77.98
2018-09-08T11:38:06.759Z,82.71
2018-09-08T11:41:10.940Z,89.87
2018-09-08T11:44:15.204Z,95.71
2018-09-08T11:47:19.453Z,98.88
2018-09-08T11:50:23.652Z,100.00
2018-09-08T11:53:27.908Z,100.00
2018-09-08T11:56:32.145Z,100.00
2018-09-08T11:59:36.426Z,99.90
2018-09-08T12:02:40.617Z,98.87
2018-09-08T12:05:44.862Z,99.11
2018-09-08T12:08:49.104Z,98.98
2018-09-08T12:11:53.413Z,99.70
2018-09-08T12:14:57.705Z,100.00
2018-09-08T12:18:02.018Z,100.00
2018-09-08T12:21:06.248Z,100.00
2018-09-08T12:24:10.557Z,100.00
2018-09-08T12:27:14.768Z,99.32
2018-09-08T12:30:19.000Z,97.47
2018-09-08T12:33:23.241Z,96.76
2018-09-08T12:36:27.508Z,98.30
2018-09-08T12:39:31.749Z,98.60
2018-09-08T12:42:36.001Z,98.54
2018-09-08T12:45:40.784Z,98.72
2018-09-08T12:48:45.025Z,98.47
2018-09-08T12:51:49.240Z,97.33
2018-09-08T12:54:53.481Z,97.58
2018-09-08T12:57:57.693Z,96.99
2018-09-08T13:01:01.933Z,97.79
2018-09-08T13:04:06.308Z,97.04
2018-09-08T13:07:10.529Z,97.13
2018-09-08T13:10:14.741Z,96.12
2018-09-08T13:13:18.997Z,93.73
2018-09-08T13:16:23.229Z,92.96
2018-09-08T13:19:27.511Z,91.55
2018-09-08T13:22:31.761Z,88.81
2018-09-08T13:25:35.999Z,89.38
2018-09-08T13:28:40.224Z,89.72
2018-09-08T13:31:44.440Z,92.40
2018-09-08T13:34:48.668Z,94.29
2018-09-08T13:37:52.916Z,95.60
2018-09-08T13:40:57.137Z,96.38
2018-09-08T13:44:01.381Z,97.86
2018-09-08T13:47:05.697Z,96.94
2018-09-08T13:50:10.381Z,95.99
2018-09-08T13:53:14.605Z,95.97
2018-09-08T13:56:18.801Z,90.42
2018-09-08T13:59:23.018Z,89.52
2018-09-08T14:02:27.268Z,88.16
2018-09-08T14:05:31.510Z,87.35
2018-09-08T14:08:35.758Z,84.89
2018-09-08T14:11:39.934Z,79.37
2018-09-08T14:14:44.159Z,79.21
2018-09-08T14:17:48.393Z,80.60
2018-09-08T14:20:52.620Z,78.83
2018-09-08T14:23:56.808Z,79.34
2018-09-08T14:27:01.066Z,79.97
2018-09-08T14:30:05.845Z,81.20
2018-09-08T14:33:10.084Z,80.79
2018-09-08T14:36:14.289Z,81.26
2018-09-08T14:39:18.477Z,82.19
2018-09-08T14:42:22.733Z,82.04
2018-09-08T14:45:27.012Z,79.80
2018-09-08T14:48:31.226Z,80.61
2018-09-08T14:51:35.469Z,78.69
2018-09-08T14:54:39.660Z,77.66
2018-09-08T14:57:43.881Z,78.04
2018-09-08T15:00:48.109Z,78.57
2018-09-08T15:03:52.326Z,75.41
2018-09-08T15:06:56.522Z,75.28
2018-09-08T15:10:00.757Z,75.84
2018-09-08T15:13:04.961Z,75.22
2018-09-08T15:16:09.193Z,76.58
2018-09-08T15:19:13.389Z,77.83
2018-09-08T15:22:17.736Z,78.15
2018-09-08T15:25:21.941Z,77.00
2018-09-08T15:28:26.609Z,75.03
2018-09-08T15:31:30.941Z,75.38
2018-09-08T15:34:35.169Z,74.80
2018-09-08T15:37:39.365Z,74.49
2018-09-08T15:40:43.576Z,73.72
2018-09-08T15:43:48.394Z,73.04
2018-09-08T15:46:52.592Z,74.24
2018-09-08T15:49:56.831Z,71.54
2018-09-08T15:53:01.042Z,73.36
2018-09-08T15:56:05.289Z,73.95
2018-09-08T15:59:09.551Z,73.17
2018-09-08T16:02:13.841Z,71.27
2018-09-08T16:05:18.085Z,71.70
2018-09-08T16:08:22.296Z,70.97
2018-09-08T16:11:26.590Z,71.57
2018-09-08T16:14:30.847Z,72.58
2018-09-08T16:17:35.017Z,73.87
2018-09-08T16:20:39.304Z,74.45
2018-09-08T16:23:43.542Z,73.55
2018-09-08T16:26:47.764Z,73.00
2018-09-08T16:29:52.089Z,74.03
2018-09-08T16:32:56.312Z,75.61
2018-09-08T16:36:00.536Z,76.46
2018-09-08T16:39:07.477Z,76.51
2018-09-08T16:42:11.747Z,76.71
2018-09-08T16:45:15.976Z,78.04
2018-09-08T16:48:20.212Z,77.46
2018-09-08T16:51:24.444Z,76.32
2018-09-08T16:54:28.665Z,77.36
2018-09-08T16:57:32.892Z,78.02
2018-09-08T17:00:37.196Z,78.68
2018-09-08T17:03:41.359Z,78.95
2018-09-08T17:06:45.575Z,80.40
2018-09-08T17:09:49.848Z,80.28
2018-09-08T17:12:54.081Z,81.49
2018-09-08T17:15:58.316Z,82.15
2018-09-08T17:19:02.552Z,82.54
2018-09-08T17:22:06.795Z,83.26
2018-09-08T17:25:11.025Z,83.10
2018-09-08T17:28:15.298Z,84.19
2018-09-08T17:31:19.532Z,83.67
2018-09-08T17:34:23.804Z,83.80
2018-09-08T17:37:28.027Z,84.91
2018-09-08T17:40:32.317Z,85.15
2018-09-08T17:43:36.550Z,85.43
2018-09-08T17:46:40.792Z,85.81
2018-09-08T17:49:44.984Z,86.45
2018-09-08T17:52:49.225Z,87.94
2018-09-08T17:55:53.405Z,89.32
2018-09-08T17:58:57.744Z,90.99
2018-09-08T18:02:01.924Z,91.77
2018-09-08T18:05:06.225Z,92.86
2018-09-08T18:08:10.412Z,94.07
2018-09-08T18:11:14.650Z,95.23
2018-09-08T18:14:18.881Z,95.55
2018-09-08T18:17:23.192Z,95.81
2018-09-08T18:20:27.400Z,96.33
2018-09-08T18:23:31.648Z,97.56
2018-09-08T18:26:35.873Z,98.86
2018-09-08T18:29:40.129Z,99.87
2018-09-08T18:32:44.420Z,99.62
2018-09-08T18:35:50.314Z,100.00
2018-09-08T18:38:54.572Z,100.00
2018-09-08T18:41:58.796Z,100.00
2018-09-08T18:45:03.033Z,100.00
2018-09-08T18:48:07.281Z,100.00
2018-09-08T18:51:11.564Z,100.00
2018-09-08T18:54:15.805Z,100.00
2018-09-08T18:57:20.027Z,100.00
2018-09-08T19:00:24.262Z,100.00
2018-09-08T19:03:28.484Z,100.00
2018-09-08T19:06:32.730Z,100.00
2018-09-08T19:09:36.981Z,100.00
2018-09-08T19:12:41.212Z,100.00
2018-09-08T19:15:45.453Z,100.00
2018-09-08T19:18:49.704Z,100.00
2018-09-08T19:21:53.924Z,100.00
2018-09-08T19:24:58.168Z,100.00
2018-09-08T19:28:02.417Z,100.00
2018-09-08T19:31:06.612Z,100.00
2018-09-08T19:34:10.860Z,100.00
2018-09-08T19:37:15.077Z,100.00
2018-09-08T19:40:24.470Z,100.00
2018-09-08T19:43:28.689Z,100.00
2018-09-08T19:46:38.233Z,100.00
2018-09-08T19:49:42.464Z,100.00
2018-09-08T19:52:51.929Z,100.00
2018-09-08T19:55:56.156Z,100.00
2018-09-08T19:59:00.807Z,100.00
2018-09-08T20:02:05.105Z,100.00
2018-09-08T20:05:09.287Z,100.00
2018-09-08T20:08:13.564Z,100.00
2018-09-08T20:11:17.793Z,100.00
2018-09-08T20:14:22.040Z,100.00
2018-09-08T20:17:26.293Z,100.00
2018-09-08T20:20:30.553Z,100.00
2018-09-08T20:23:34.771Z,100.00
2018-09-08T20:26:39.042Z,100.00
2018-09-08T20:29:43.373Z,100.00
2018-09-08T20:32:47.608Z,100.00
2018-09-08T20:35:51.882Z,100.00
2018-09-08T20:38:56.125Z,100.00
2018-09-08T20:42:00.468Z,100.00
2018-09-08T20:45:04.868Z,100.00
2018-09-08T20:48:09.145Z,100.00
2018-09-08T20:51:13.407Z,100.00
2018-09-08T20:54:17.648Z,100.00
2018-09-08T20:57:21.859Z,100.00
2018-09-08T21:00:26.109Z,100.00
2018-09-08T21:03:30.377Z,100.00
2018-09-08T21:06:34.639Z,100.00
2018-09-08T21:09:39.661Z,100.00
2018-09-08T21:12:43.908Z,100.00
2018-09-08T21:15:48.173Z,100.00
2018-09-08T21:18:52.403Z,100.00
2018-09-08T21:21:56.692Z,100.00
2018-09-08T21:25:00.980Z,100.00
2018-09-08T21:28:05.230Z,100.00
2018-09-08T21:31:09.480Z,100.00
2018-09-08T21:34:13.700Z,100.00
2018-09-08T21:37:17.933Z,100.00
2018-09-08T21:40:22.192Z,100.00
2018-09-08T21:43:26.434Z,100.00
2018-09-08T21:46:30.684Z,100.00
2018-09-08T21:49:34.899Z,100.00
2018-09-08T21:52:39.139Z,100.00
2018-09-08T21:55:43.376Z,100.00
2018-09-08T21:58:47.625Z,100.00
2018-09-08T22:01:51.884Z,100.00
2018-09-08T22:04:56.124Z,100.00
2018-09-08T22:08:00.356Z,100.00
2018-09-08T22:11:04.624Z,100.00
2018-09-08T22:14:08.897Z,100.00
2018-09-08T22:17:13.116Z,100.00
2018-09-08T22:20:17.362Z,100.00
2018-09-08T22:23:21.609Z,100.00
2018-09-08T22:26:25.836Z,100.00
2018-09-08T22:29:30.068Z,100.00
2018-09-08T22:32:34.352Z,100.00
2018-09-08T22:35:38.592Z,100.00
2018-09-08T22:38:42.876Z,100.00
2018-09-08T22:41:47.561Z,100.00
2018-09-08T22:44:52.061Z,100.00
2018-09-08T22:47:56.868Z,100.00
2018-09-08T22:51:01.334Z,100.00
2018-09-08T22:54:05.831Z,100.00
2018-09-08T22:57:10.505Z,100.00
2018-09-08T23:00:14.998Z,100.00
2018-09-08T23:03:19.428Z,100.00
2018-09-08T23:06:24.089Z,100.00
2018-09-08T23:09:28.635Z,100.00
2018-09-08T23:12:32.915Z,100.00
2018-09-08T23:15:37.150Z,100.00
2018-09-08T23:18:41.396Z,100.00
2018-09-08T23:21:45.665Z,100.00
2018-09-08T23:24:49.928Z,100.00
2018-09-08T23:27:54.176Z,100.00
2018-09-08T23:31:01.185Z,100.00
2018-09-08T23:34:05.768Z,100.00
2018-09-08T23:37:10.410Z,100.00
2018-09-08T23:40:15.053Z,100.00
2018-09-08T23:43:21.252Z,100.00
2018-09-08T23:46:25.673Z,100.00
2018-09-08T23:49:32.733Z,100.00
2018-09-08T23:52:37.260Z,100.00
2018-09-08T23:55:41.904Z,100.00
2018-09-08T23:58:46.512Z,100.00
